This is the latest recevied weather packets stored in our database for station/object KQ4JKJ. If no packets are shown the sender has not sent any weather packets the latest 1 day(s).
| Time | Temp. | Humidity | Pressure | Rain* | Wind** | Luminosity | Snow |
|---|---|---|---|---|---|---|---|
| 1778084386 | 28.89° C | 73% | 1011.9 hPa | 0 mm | - | 606 W/m² | - |
| 1778084083 | 28.89° C | 74% | 1011.8 hPa | 0 mm | - | 566 W/m² | - |
| 1778083775 | 30° C | 71% | 1011.9 hPa | 0 mm | - | 644 W/m² | - |
| 1778081446 | 30° C | 70% | 1012 hPa | 0 mm | - | 658 W/m² | - |
| 1778081143 | 29.44° C | 71% | 1012.2 hPa | 0 mm | - | 658 W/m² | - |
| 1778080841 | 29.44° C | 72% | 1012.2 hPa | 0 mm | - | 640 W/m² | - |
| 1778080539 | 30° C | 71% | 1012 hPa | 0 mm | - | 613 W/m² | - |
| 1778080236 | 29.44° C | 70% | 1012 hPa | 0 mm | - | 662 W/m² | - |
| 1778079320 | 29.44° C | 73% | 1011.9 hPa | 0 mm | - | 607 W/m² | - |
| 1778078714 | 29.44° C | 71% | 1011.8 hPa | 0 mm | - | 580 W/m² | - |
| 1778078109 | 28.89° C | 74% | 1011.7 hPa | 0 mm | - | 556 W/m² | - |
| 1778075385 | 28.33° C | 77% | 1011.5 hPa | 0 mm | - | 379 W/m² | - |
| 1778075081 | 27.78° C | 79% | 1011.6 hPa | 0 mm | - | 427 W/m² | - |
| 1778074172 | 27.22° C | 80% | 1011.5 hPa | 0 mm | - | 332 W/m² | - |
| 1778073263 | 26.67° C | 81% | 1011.3 hPa | 0 mm | - | 239 W/m² | - |
| 1778072960 | 26.67° C | 82% | 1011.3 hPa | 0 mm | - | 241 W/m² | - |
| 1778070843 | 26.67° C | 82% | 1011.4 hPa | 0 mm | - | 234 W/m² | - |
| 1778070237 | 26.11° C | 83% | 1011.1 hPa | 0 mm | - | 190 W/m² | - |
| 1778069329 | 23.89° C | 91% | 1010.9 hPa | 0 mm | - | 174 W/m² | - |
| 1778068724 | 22.78° C | 96% | 1011.1 hPa | 0 mm | - | 96 W/m² | - |
| 1778068422 | 22.78° C | 97% | 1011 hPa | 0 mm | - | 87 W/m² | - |
| 1778068120 | 22.22° C | 98% | 1010.7 hPa | 0 mm | - | 75 W/m² | - |
| 1778067516 | 21.67° C | 98% | 1010.6 hPa | 0 mm | - | 54 W/m² | - |
| 1778067213 | 21.11° C | 98% | 1010.7 hPa | 0 mm | - | 48 W/m² | - |
| 1778066304 | 20.56° C | 98% | 1010.7 hPa | 0 mm | - | 33 W/m² | - |
* Rain latest hour (hover to see other rain measurements)
** Current wind speed in m/s (hover to see current wind gust speed)